createdAt,value
2018-12-20T00:01:20.769Z,101046.45
2018-12-20T00:03:48.292Z,101034.09
2018-12-20T00:06:15.790Z,101034.97
2018-12-20T00:08:43.421Z,101033.72
2018-12-20T00:11:11.109Z,101029.73
2018-12-20T00:13:38.781Z,101025.76
2018-12-20T00:16:06.517Z,101028.39
2018-12-20T00:18:34.159Z,101026.69
2018-12-20T00:21:01.666Z,101024.91
2018-12-20T00:23:29.180Z,101028.38
2018-12-20T00:25:56.745Z,101024.88
2018-12-20T00:28:24.243Z,101029.28
2018-12-20T00:30:51.977Z,101036.39
2018-12-20T00:33:19.612Z,101039.04
2018-12-20T00:35:47.180Z,101038.19
2018-12-20T00:38:14.914Z,101040.79
2018-12-20T00:40:42.620Z,101042.14
2018-12-20T00:43:10.480Z,101045.22
2018-12-20T00:45:38.184Z,101047.90
2018-12-20T00:48:05.861Z,101054.53
2018-12-20T00:50:33.477Z,101053.20
2018-12-20T00:53:01.132Z,101057.16
2018-12-20T00:55:28.694Z,101054.53
2018-12-20T00:57:56.313Z,101051.00
2018-12-20T01:00:24.135Z,101050.52
2018-12-20T01:02:55.231Z,101062.44
2018-12-20T01:05:21.325Z,101054.05
2018-12-20T01:07:49.157Z,101061.11
2018-12-20T01:10:16.817Z,101056.26
2018-12-20T01:12:44.346Z,101058.45
2018-12-20T01:15:11.851Z,101060.63
2018-12-20T01:17:39.414Z,101063.30
2018-12-20T01:20:08.860Z,101065.56
2018-12-20T01:22:36.621Z,101059.36
2018-12-20T01:25:04.947Z,101062.45
2018-12-20T01:27:32.572Z,101060.28
2018-12-20T01:30:00.176Z,101058.91
2018-12-20T01:32:27.730Z,101058.48
2018-12-20T01:34:55.329Z,101059.78
2018-12-20T01:37:22.863Z,101054.53
2018-12-20T01:39:50.621Z,101056.71
2018-12-20T01:42:18.311Z,101054.95
2018-12-20T01:44:53.297Z,101054.05
2018-12-20T01:47:15.555Z,101055.83
2018-12-20T01:49:43.420Z,101050.95
2018-12-20T01:52:11.046Z,101053.59
2018-12-20T01:54:38.662Z,101050.97
2018-12-20T01:57:06.466Z,101050.50
2018-12-20T01:59:34.141Z,101052.30
2018-12-20T02:02:02.293Z,101051.83
2018-12-20T02:04:29.897Z,101053.67
2018-12-20T02:06:57.704Z,101056.25
2018-12-20T02:09:25.489Z,101056.70
2018-12-20T02:11:53.123Z,101052.32
2018-12-20T02:14:20.794Z,101046.55
2018-12-20T02:16:48.415Z,101046.98
2018-12-20T02:19:15.971Z,101046.53
2018-12-20T02:21:43.933Z,101043.52
2018-12-20T02:24:11.721Z,101043.47
2018-12-20T02:26:39.302Z,101045.27
2018-12-20T02:29:07.062Z,101043.47
2018-12-20T02:31:34.678Z,101032.43
2018-12-20T02:34:02.236Z,101030.20
2018-12-20T02:36:29.852Z,101032.84
2018-12-20T02:38:57.486Z,101033.28
2018-12-20T02:41:25.129Z,101030.20
2018-12-20T02:43:52.920Z,101025.81
2018-12-20T02:46:20.873Z,101027.55
2018-12-20T02:48:48.457Z,101023.10
2018-12-20T02:51:16.277Z,101017.41
2018-12-20T02:53:43.935Z,101010.30
2018-12-20T02:56:11.459Z,101022.70
2018-12-20T02:58:39.168Z,101016.52
2018-12-20T03:01:18.139Z,101014.75
2018-12-20T03:03:46.207Z,101013.42
2018-12-20T03:06:14.169Z,101017.00
2018-12-20T03:08:42.493Z,101006.84
2018-12-20T03:11:10.269Z,101016.13
2018-12-20T03:13:38.207Z,101013.07
2018-12-20T03:16:05.864Z,101016.13
2018-12-20T03:18:33.490Z,101020.58
2018-12-20T03:21:01.054Z,101012.63
2018-12-20T03:23:28.915Z,101011.29
2018-12-20T03:25:56.562Z,101013.48
2018-12-20T03:28:24.322Z,101007.74
2018-12-20T03:30:52.468Z,101008.64
2018-12-20T03:33:20.118Z,101005.98
2018-12-20T03:35:47.925Z,101001.98
2018-12-20T03:38:15.572Z,101002.86
2018-12-20T03:40:43.318Z,101004.19
2018-12-20T03:43:11.009Z,101005.12
2018-12-20T03:45:39.537Z,101003.34
2018-12-20T03:48:07.180Z,101002.87
2018-12-20T03:50:34.709Z,100996.71
2018-12-20T03:53:02.344Z,100991.43
2018-12-20T03:55:30.410Z,100996.66
2018-12-20T03:57:58.465Z,100999.77
2018-12-20T04:00:26.359Z,101002.48
2018-12-20T04:02:54.219Z,101003.36
2018-12-20T04:05:21.883Z,101002.94
2018-12-20T04:07:49.535Z,101001.61
2018-12-20T04:10:17.329Z,101002.48
2018-12-20T04:12:45.005Z,101005.61
2018-12-20T04:15:12.516Z,101007.36
2018-12-20T04:17:40.057Z,101007.34
2018-12-20T04:20:07.750Z,101004.73
2018-12-20T04:22:35.733Z,101008.22
2018-12-20T04:25:03.462Z,101009.57
2018-12-20T04:27:31.011Z,101004.71
2018-12-20T04:29:58.573Z,101010.02
2018-12-20T04:32:26.131Z,101002.48
2018-12-20T04:34:53.878Z,100998.51
2018-12-20T04:37:21.733Z,100997.19
2018-12-20T04:39:49.627Z,100992.78
2018-12-20T04:42:17.392Z,100990.11
2018-12-20T04:44:45.168Z,100996.73
2018-12-20T04:47:12.941Z,100990.13
2018-12-20T04:49:40.646Z,101000.29
2018-12-20T04:52:08.431Z,101003.79
2018-12-20T04:54:35.988Z,101003.38
2018-12-20T04:57:03.543Z,100991.81
2018-12-20T04:59:31.058Z,100988.75
2018-12-20T05:01:58.680Z,100995.86
2018-12-20T05:04:26.365Z,100991.86
2018-12-20T05:06:53.917Z,100988.36
2018-12-20T05:09:21.521Z,100989.67
2018-12-20T05:11:49.066Z,100994.08
2018-12-20T05:14:16.665Z,100994.98
2018-12-20T05:16:44.240Z,100998.91
2018-12-20T05:19:11.824Z,100994.06
2018-12-20T05:21:39.667Z,100994.51
2018-12-20T05:24:07.359Z,100988.78
2018-12-20T05:26:34.891Z,100990.11
2018-12-20T05:29:02.490Z,100977.30
2018-12-20T05:31:30.040Z,100982.17
2018-12-20T05:33:57.682Z,100986.16
2018-12-20T05:36:25.413Z,100987.88
2018-12-20T05:38:53.015Z,100983.48
2018-12-20T05:41:20.522Z,100991.43
2018-12-20T05:43:48.303Z,100987.88
2018-12-20T05:46:16.278Z,100994.13
2018-12-20T05:48:44.128Z,100989.63
2018-12-20T05:51:11.851Z,100993.20
2018-12-20T05:53:39.438Z,100990.08
2018-12-20T05:56:07.098Z,100994.53
2018-12-20T05:58:34.628Z,100994.98
2018-12-20T06:01:02.328Z,100997.64
2018-12-20T06:03:30.235Z,100991.48
2018-12-20T06:05:57.818Z,100995.43
2018-12-20T06:08:25.373Z,100994.11
2018-12-20T06:10:53.958Z,100989.70
2018-12-20T06:13:21.722Z,100985.73
2018-12-20T06:15:50.273Z,100985.25
2018-12-20T06:18:18.086Z,100984.80
2018-12-20T06:20:45.741Z,100984.83
2018-12-20T06:23:13.315Z,100982.15
2018-12-20T06:25:40.835Z,100981.73
2018-12-20T06:28:08.343Z,100984.38
2018-12-20T06:30:35.851Z,100988.33
2018-12-20T06:33:03.362Z,100987.45
2018-12-20T06:35:30.904Z,100983.50
2018-12-20T06:37:58.413Z,100986.13
2018-12-20T06:40:25.980Z,100983.48
2018-12-20T06:42:54.185Z,100986.98
2018-12-20T06:45:21.751Z,100977.75
2018-12-20T06:47:49.306Z,100981.73
2018-12-20T06:50:16.871Z,100978.59
2018-12-20T06:52:44.365Z,100979.50
2018-12-20T06:55:11.991Z,100993.66
2018-12-20T06:57:39.491Z,100975.09
2018-12-20T07:00:08.848Z,100985.25
2018-12-20T07:02:38.499Z,100982.67
2018-12-20T07:05:06.165Z,100990.63
2018-12-20T07:07:33.698Z,100995.01
2018-12-20T07:10:01.255Z,100996.78
2018-12-20T07:12:28.769Z,100995.05
2018-12-20T07:14:56.356Z,100995.03
2018-12-20T07:17:23.854Z,100992.80
2018-12-20T07:19:51.482Z,100994.13
2018-12-20T07:22:18.983Z,100991.50
2018-12-20T07:24:46.528Z,100993.72
2018-12-20T07:27:14.627Z,100989.73
2018-12-20T07:29:42.130Z,100990.63
2018-12-20T07:32:09.792Z,100988.88
2018-12-20T07:34:37.389Z,100991.48
2018-12-20T07:37:05.122Z,100990.65
2018-12-20T07:39:32.670Z,100998.16
2018-12-20T07:42:00.210Z,100995.95
2018-12-20T07:44:27.802Z,100995.03
2018-12-20T07:46:55.299Z,100994.20
2018-12-20T07:49:22.815Z,100995.95
2018-12-20T07:51:50.474Z,101000.81
2018-12-20T07:54:18.005Z,100995.45
2018-12-20T07:56:45.560Z,100995.45
2018-12-20T07:59:13.263Z,100996.78
2018-12-20T08:01:40.757Z,100991.05
2018-12-20T08:04:08.275Z,100993.20
2018-12-20T08:06:35.839Z,100988.80
2018-12-20T08:09:04.623Z,100983.98
2018-12-20T08:11:32.143Z,100989.20
2018-12-20T08:13:59.874Z,100992.26
2018-12-20T08:16:27.373Z,100997.53
2018-12-20T08:18:54.965Z,101000.19
2018-12-20T08:21:22.540Z,101005.42
2018-12-20T08:23:50.086Z,101011.55
2018-12-20T08:26:17.646Z,101006.73
2018-12-20T08:28:45.152Z,101008.90
2018-12-20T08:31:12.773Z,101008.04
2018-12-20T08:33:40.276Z,101007.62
2018-12-20T08:36:07.825Z,101007.97
2018-12-20T08:38:35.343Z,101000.89
2018-12-20T08:41:03.006Z,101006.19
2018-12-20T08:43:30.565Z,101013.22
2018-12-20T08:45:58.191Z,101013.22
2018-12-20T08:48:25.730Z,101012.81
2018-12-20T08:50:53.351Z,101013.72
2018-12-20T08:53:20.912Z,101016.37
2018-12-20T08:55:48.470Z,101013.67
2018-12-20T08:58:16.130Z,101015.42
2018-12-20T09:00:43.690Z,101017.63
2018-12-20T09:03:11.251Z,101019.93
2018-12-20T09:05:38.791Z,101019.84
2018-12-20T09:08:06.382Z,101025.16
2018-12-20T09:10:34.036Z,101028.20
2018-12-20T09:13:09.348Z,101031.26
2018-12-20T09:15:31.130Z,101028.16
2018-12-20T09:17:58.656Z,101024.55
2018-12-20T09:20:32.655Z,101031.66
2018-12-20T09:22:55.836Z,101034.66
2018-12-20T09:25:23.390Z,101032.02
2018-12-20T09:27:50.949Z,101037.84
2018-12-20T09:30:18.452Z,101030.73
2018-12-20T09:32:45.966Z,101035.13
2018-12-20T09:35:13.499Z,101032.02
2018-12-20T09:37:41.043Z,101033.23
2018-12-20T09:40:08.760Z,101031.91
2018-12-20T09:42:36.261Z,101037.59
2018-12-20T09:45:04.286Z,101034.42
2018-12-20T09:50:32.372Z,101030.05
2018-12-20T09:52:59.949Z,101018.50
2018-12-20T09:55:27.468Z,101025.22
2018-12-20T09:57:54.965Z,101012.34
2018-12-20T10:00:22.484Z,101014.91
2018-12-20T10:02:50.076Z,101016.17
2018-12-20T10:05:17.585Z,101007.33
2018-12-20T10:07:45.125Z,101008.08
2018-12-20T10:10:12.757Z,101008.11
2018-12-20T10:12:40.272Z,101001.96
2018-12-20T10:15:07.887Z,101004.48
2018-12-20T10:17:35.430Z,101003.22
2018-12-20T10:20:03.100Z,100996.03
2018-12-20T10:22:30.655Z,100995.51
2018-12-20T10:24:58.211Z,100991.59
2018-12-20T10:27:31.349Z,100984.95
2018-12-20T10:29:55.377Z,100984.36
2018-12-20T10:32:22.938Z,100980.76
2018-12-20T10:34:50.432Z,100973.97
2018-12-20T10:37:17.935Z,100975.72
2018-12-20T10:39:45.464Z,100969.68
2018-12-20T10:42:13.076Z,100966.11
2018-12-20T10:44:40.639Z,100967.75
2018-12-20T10:47:13.697Z,100960.95
2018-12-20T10:49:41.286Z,100956.33
2018-12-20T10:52:08.846Z,100952.14
2018-12-20T10:54:36.363Z,100955.30
2018-12-20T10:57:04.040Z,100953.02
2018-12-20T10:59:32.177Z,100944.63
2018-12-20T11:02:05.409Z,100942.89
2018-12-20T11:04:34.944Z,100934.75
2018-12-20T11:07:08.129Z,100933.88
2018-12-20T11:09:41.188Z,100934.05
2018-12-20T11:12:09.028Z,100938.48
2018-12-20T11:14:36.573Z,100933.09
2018-12-20T11:17:04.165Z,100923.67
2018-12-20T11:19:31.784Z,100921.47
2018-12-20T11:21:59.287Z,100922.63
2018-12-20T11:24:27.230Z,100917.98
2018-12-20T11:26:54.774Z,100907.73
2018-12-20T11:29:22.273Z,100907.80
2018-12-20T11:31:49.818Z,100910.88
2018-12-20T11:34:17.342Z,100914.00
2018-12-20T11:36:45.557Z,100915.33
2018-12-20T11:39:13.198Z,100919.23
2018-12-20T11:41:40.834Z,100914.83
2018-12-20T11:44:08.412Z,100913.49
2018-12-20T11:46:35.959Z,100917.81
2018-12-20T11:49:03.522Z,100915.20
2018-12-20T11:51:31.077Z,100913.38
2018-12-20T11:53:58.642Z,100914.70
2018-12-20T11:56:26.556Z,100904.94
2018-12-20T11:58:54.064Z,100904.81
2018-12-20T12:01:21.658Z,100903.86
2018-12-20T12:03:57.198Z,100901.57
2018-12-20T12:06:18.917Z,100905.09
2018-12-20T12:08:46.455Z,100905.14
2018-12-20T12:11:13.976Z,100902.94
2018-12-20T12:13:41.510Z,100901.11
2018-12-20T12:16:09.135Z,100892.59
2018-12-20T12:18:36.649Z,100895.15
2018-12-20T12:21:04.697Z,100906.98
2018-12-20T12:23:32.651Z,100906.52
2018-12-20T12:26:00.199Z,100903.00
2018-12-20T12:28:27.753Z,100906.48
2018-12-20T12:30:55.245Z,100907.30
2018-12-20T12:33:22.766Z,100900.01
2018-12-20T12:35:50.329Z,100899.50
2018-12-20T12:38:17.839Z,100896.79
2018-12-20T12:40:45.472Z,100899.55
2018-12-20T12:43:13.012Z,100895.91
2018-12-20T12:45:40.589Z,100891.88
2018-12-20T12:48:08.238Z,100892.24
2018-12-20T12:50:35.792Z,100888.25
2018-12-20T12:53:03.359Z,100891.37
2018-12-20T12:55:30.917Z,100886.92
2018-12-20T12:58:04.571Z,100887.84
2018-12-20T13:00:28.056Z,100876.70
2018-12-20T13:02:55.576Z,100887.21
2018-12-20T13:05:23.202Z,100889.06
2018-12-20T13:07:50.760Z,100889.88
2018-12-20T13:10:18.421Z,100882.96
2018-12-20T13:12:45.921Z,100885.27
2018-12-20T13:15:13.526Z,100903.53
2018-12-20T13:17:41.038Z,100894.17
2018-12-20T13:20:09.518Z,100899.39
2018-12-20T13:22:37.084Z,100894.91
2018-12-20T13:25:05.328Z,100897.20
2018-12-20T13:27:32.821Z,100898.16
2018-12-20T13:30:00.331Z,100893.72
2018-12-20T13:32:27.902Z,100888.86
2018-12-20T13:34:55.413Z,100885.38
2018-12-20T13:37:22.918Z,100884.14
2018-12-20T13:39:50.446Z,100881.84
2018-12-20T13:42:17.969Z,100886.80
2018-12-20T13:44:45.494Z,100891.70
2018-12-20T13:47:13.094Z,100886.44
2018-12-20T13:49:40.616Z,100888.64
2018-12-20T13:52:08.198Z,100886.48
2018-12-20T13:54:35.749Z,100894.31
2018-12-20T13:57:03.302Z,100897.03
2018-12-20T13:59:30.849Z,100893.41
2018-12-20T14:01:58.934Z,100894.37
2018-12-20T14:04:26.526Z,100893.96
2018-12-20T14:06:54.159Z,100896.16
2018-12-20T14:09:21.682Z,100895.24
2018-12-20T14:11:49.267Z,100897.86
2018-12-20T14:14:16.848Z,100889.97
2018-12-20T14:16:44.420Z,100895.28
2018-12-20T14:19:11.948Z,100900.56
2018-12-20T14:21:39.539Z,100900.11
2018-12-20T14:24:07.190Z,100896.52
2018-12-20T14:26:34.704Z,100896.53
2018-12-20T14:29:02.211Z,100902.39
2018-12-20T14:31:29.749Z,100901.98
2018-12-20T14:33:57.377Z,100904.59
2018-12-20T14:36:24.932Z,100897.95
2018-12-20T14:38:52.558Z,100908.58
2018-12-20T14:41:20.059Z,100910.88
2018-12-20T14:43:47.652Z,100911.11
2018-12-20T14:46:15.312Z,100921.87
2018-12-20T14:48:42.952Z,100917.38
2018-12-20T14:51:10.536Z,100916.42
2018-12-20T14:53:38.166Z,100919.13
2018-12-20T14:56:05.716Z,100921.78
2018-12-20T14:58:33.217Z,100917.30
2018-12-20T15:01:00.777Z,100916.05
2018-12-20T15:03:28.288Z,100916.14
2018-12-20T15:05:55.898Z,100912.16
2018-12-20T15:08:23.400Z,100914.77
2018-12-20T15:10:50.957Z,100911.24
2018-12-20T15:13:18.472Z,100911.28
2018-12-20T15:15:46.031Z,100912.16
2018-12-20T15:18:13.594Z,100913.53
2018-12-20T15:20:41.122Z,100905.59
2018-12-20T15:23:08.714Z,100912.28
2018-12-20T15:25:36.481Z,100911.42
2018-12-20T15:28:04.402Z,100914.57
2018-12-20T15:30:32.046Z,100920.39
2018-12-20T15:32:59.674Z,100924.38
2018-12-20T15:35:27.229Z,100924.38
2018-12-20T15:37:54.794Z,100920.89
2018-12-20T15:40:22.376Z,100924.00
2018-12-20T15:42:49.909Z,100922.30
2018-12-20T15:45:17.469Z,100923.09
2018-12-20T15:47:45.030Z,100923.59
2018-12-20T15:50:12.563Z,100921.39
2018-12-20T15:52:40.081Z,100923.59
2018-12-20T15:55:07.714Z,100921.80
2018-12-20T15:57:35.377Z,100925.70
2018-12-20T16:00:03.035Z,100925.29
2018-12-20T16:02:30.532Z,100922.63
2018-12-20T16:04:58.767Z,100920.39
2018-12-20T16:07:30.746Z,100916.03
2018-12-20T16:09:58.330Z,100925.29
2018-12-20T16:12:26.980Z,100921.80
2018-12-20T16:14:54.481Z,100921.80
2018-12-20T16:17:22.099Z,100923.96
2018-12-20T16:19:49.658Z,100923.59
2018-12-20T16:22:17.226Z,100924.38
2018-12-20T16:24:44.885Z,100919.10
2018-12-20T16:27:12.466Z,100922.67
2018-12-20T16:29:40.016Z,100931.48
2018-12-20T16:32:07.786Z,100929.23
2018-12-20T16:34:35.361Z,100930.15
2018-12-20T16:37:02.993Z,100927.91
2018-12-20T16:39:30.576Z,100925.37
2018-12-20T16:41:58.177Z,100927.12
2018-12-20T16:44:25.668Z,100924.45
2018-12-20T16:46:53.209Z,100928.03
2018-12-20T16:49:20.798Z,100927.53
2018-12-20T16:51:48.355Z,100929.61
2018-12-20T16:54:15.947Z,100919.47
2018-12-20T16:56:43.466Z,100928.28
2018-12-20T16:59:11.033Z,100920.34
2018-12-20T17:01:38.590Z,100923.88
2018-12-20T17:04:06.176Z,100917.69
2018-12-20T17:06:33.815Z,100919.89
2018-12-20T17:09:01.410Z,100921.59
2018-12-20T17:11:28.946Z,100915.32
2018-12-20T17:13:56.602Z,100915.81
2018-12-20T17:16:24.289Z,100916.19
2018-12-20T17:18:51.821Z,100916.19
2018-12-20T17:21:19.379Z,100920.17
2018-12-20T17:23:46.977Z,100914.41
2018-12-20T17:26:14.614Z,100920.63
2018-12-20T17:28:42.129Z,100918.84
2018-12-20T17:31:09.646Z,100921.05
2018-12-20T17:33:37.169Z,100919.17
2018-12-20T17:36:04.754Z,100918.30
2018-12-20T17:38:32.430Z,100922.66
2018-12-20T17:40:59.985Z,100917.38
2018-12-20T17:43:27.517Z,100915.14
2018-12-20T17:45:55.046Z,100913.81
2018-12-20T17:48:29.077Z,100920.41
2018-12-20T17:50:52.218Z,100910.65
2018-12-20T17:53:19.809Z,100915.50
2018-12-20T17:55:47.359Z,100921.65
2018-12-20T17:58:14.871Z,100918.17
2018-12-20T18:00:42.423Z,100919.50
2018-12-20T18:03:09.947Z,100916.34
2018-12-20T18:05:37.510Z,100919.32
2018-12-20T18:08:05.049Z,100917.16
2018-12-20T18:10:32.566Z,100917.98
2018-12-20T18:13:00.187Z,100922.84
2018-12-20T18:15:27.686Z,100923.80
2018-12-20T18:17:55.328Z,100920.33
2018-12-20T18:20:22.834Z,100922.34
2018-12-20T18:22:50.362Z,100915.83
2018-12-20T18:25:17.856Z,100916.16
2018-12-20T18:27:45.369Z,100921.43
2018-12-20T18:30:12.875Z,100920.64
2018-12-20T18:32:40.436Z,100923.72
2018-12-20T18:35:07.946Z,100924.17
2018-12-20T18:37:36.035Z,100926.83
2018-12-20T18:40:04.563Z,100926.33
2018-12-20T18:42:32.142Z,100924.54
2018-12-20T18:44:59.699Z,100923.77
2018-12-20T18:47:27.236Z,100925.13
2018-12-20T18:49:54.830Z,100924.64
2018-12-20T18:52:22.344Z,100923.39
2018-12-20T18:54:49.890Z,100927.34
2018-12-20T18:57:17.451Z,100932.06
2018-12-20T18:59:45.052Z,100931.78
2018-12-20T19:02:12.611Z,100931.28
2018-12-20T19:04:40.145Z,100934.67
2018-12-20T19:07:07.664Z,100934.63
2018-12-20T19:09:35.206Z,100938.21
2018-12-20T19:12:02.862Z,100934.22
2018-12-20T19:14:30.410Z,100934.12
2018-12-20T19:16:57.909Z,100935.05
2018-12-20T19:19:25.542Z,100933.25
2018-12-20T19:21:53.054Z,100932.80
2018-12-20T19:24:20.581Z,100927.43
2018-12-20T19:26:48.128Z,100941.64
2018-12-20T19:29:15.638Z,100936.73
2018-12-20T19:31:43.160Z,100937.11
2018-12-20T19:34:10.691Z,100935.41
2018-12-20T19:36:38.192Z,100930.45
2018-12-20T19:39:08.886Z,100936.69
2018-12-20T19:41:36.440Z,100933.11
2018-12-20T19:44:04.102Z,100933.98
2018-12-20T19:46:31.611Z,100931.32
2018-12-20T19:48:59.223Z,100929.99
2018-12-20T19:51:26.795Z,100933.53
2018-12-20T19:53:54.342Z,100938.02
2018-12-20T19:56:21.922Z,100939.81
2018-12-20T19:58:49.430Z,100935.78
2018-12-20T20:01:16.941Z,100932.34
2018-12-20T20:03:44.520Z,100931.93
2018-12-20T20:06:12.097Z,100935.91
2018-12-20T20:08:39.712Z,100930.19
2018-12-20T20:11:07.222Z,100926.24
2018-12-20T20:13:34.854Z,100935.09
2018-12-20T20:16:02.394Z,100932.94
2018-12-20T20:18:29.948Z,100929.78
2018-12-20T20:20:57.539Z,100930.73
2018-12-20T20:23:25.079Z,100923.62
2018-12-20T20:25:52.635Z,100927.66
2018-12-20T20:28:20.144Z,100929.35
2018-12-20T20:30:47.679Z,100935.59
2018-12-20T20:33:15.309Z,100928.07
2018-12-20T20:35:43.249Z,100925.88
2018-12-20T20:38:10.772Z,100928.58
2018-12-20T20:40:38.290Z,100926.38
2018-12-20T20:43:05.789Z,100923.26
2018-12-20T20:45:33.868Z,100924.55
2018-12-20T20:48:01.431Z,100923.77
2018-12-20T20:50:28.975Z,100917.16
2018-12-20T20:52:56.604Z,100917.11
2018-12-20T20:55:24.180Z,100916.24
2018-12-20T20:57:51.695Z,100908.67
2018-12-20T21:00:19.226Z,100906.02
2018-12-20T21:02:46.794Z,100913.55
2018-12-20T21:05:14.596Z,100916.70
2018-12-20T21:07:42.181Z,100908.30
2018-12-20T21:10:09.776Z,100910.78
2018-12-20T21:12:37.309Z,100910.28
2018-12-20T21:15:07.119Z,100903.86
2018-12-20T21:17:34.667Z,100914.41
2018-12-20T21:20:02.232Z,100907.44
2018-12-20T21:22:29.732Z,100904.69
2018-12-20T21:24:57.242Z,100902.08
2018-12-20T21:27:24.801Z,100900.23
2018-12-20T21:29:52.418Z,100902.86
2018-12-20T21:32:19.952Z,100909.55
2018-12-20T21:34:47.510Z,100904.64
2018-12-20T21:37:15.580Z,100909.04
2018-12-20T21:39:43.137Z,100909.83
2018-12-20T21:42:10.644Z,100914.77
2018-12-20T21:44:38.171Z,100908.22
2018-12-20T21:47:05.678Z,100911.23
2018-12-20T21:49:33.254Z,100918.77
2018-12-20T21:52:01.685Z,100911.70
2018-12-20T21:54:29.398Z,100916.05
2018-12-20T21:56:56.930Z,100920.05
2018-12-20T21:59:24.440Z,100923.62
2018-12-20T22:01:52.209Z,100919.67
2018-12-20T22:04:20.209Z,100923.12
2018-12-20T22:06:48.048Z,100915.14
2018-12-20T22:09:15.695Z,100911.15
2018-12-20T22:11:43.200Z,100913.31
2018-12-20T22:14:10.728Z,100911.11
2018-12-20T22:16:38.460Z,100909.78
2018-12-20T22:19:06.306Z,100907.98
2018-12-20T22:21:34.029Z,100911.05
2018-12-20T22:24:01.556Z,100903.12
2018-12-20T22:26:29.064Z,100908.39
2018-12-20T22:28:56.769Z,100902.16
2018-12-20T22:31:24.271Z,100904.36
2018-12-20T22:33:52.207Z,100896.79
2018-12-20T22:36:19.733Z,100898.53
2018-12-20T22:38:47.318Z,100898.17
2018-12-20T22:41:15.094Z,100889.64
2018-12-20T22:43:42.642Z,100902.42
2018-12-20T22:46:11.220Z,100899.81
2018-12-20T22:48:38.882Z,100904.27
2018-12-20T22:51:06.391Z,100900.69
2018-12-20T22:53:33.903Z,100901.14
2018-12-20T22:56:01.495Z,100896.73
2018-12-20T22:58:29.026Z,100897.11
2018-12-20T23:00:56.569Z,100891.72
2018-12-20T23:03:24.171Z,100893.58
2018-12-20T23:05:51.739Z,100891.83
2018-12-20T23:08:19.300Z,100887.84
2018-12-20T23:10:47.137Z,100894.55
2018-12-20T23:13:14.793Z,100890.50
2018-12-20T23:15:42.361Z,100887.42
2018-12-20T23:18:09.866Z,100888.39
2018-12-20T23:20:37.375Z,100890.59
2018-12-20T23:23:04.966Z,100885.33
2018-12-20T23:25:32.603Z,100883.12
2018-12-20T23:28:00.684Z,100879.55
2018-12-20T23:30:28.335Z,100877.75
2018-12-20T23:32:55.886Z,100878.21
2018-12-20T23:35:23.454Z,100871.10
2018-12-20T23:37:50.944Z,100875.92
2018-12-20T23:40:18.489Z,100876.06
2018-12-20T23:42:46.000Z,100874.73
2018-12-20T23:45:13.587Z,100871.98
2018-12-20T23:47:41.148Z,100869.52
2018-12-20T23:50:08.682Z,100873.45
2018-12-20T23:52:36.270Z,100873.04
2018-12-20T23:55:04.439Z,100872.17
2018-12-20T23:57:32.010Z,100868.80
2018-12-20T23:59:59.531Z,100868.33
